createdAt,value
2019-02-27T00:01:39.347Z,23.13
2019-02-27T00:04:08.147Z,24.23
2019-02-27T00:06:36.931Z,23.23
2019-02-27T00:09:09.227Z,23.73
2019-02-27T00:11:38.088Z,24.00
2019-02-27T00:14:06.876Z,24.20
2019-02-27T00:16:36.462Z,25.77
2019-02-27T00:19:05.326Z,19.67
2019-02-27T00:21:34.287Z,22.67
2019-02-27T00:24:03.648Z,21.27
2019-02-27T00:26:33.275Z,24.53
2019-02-27T00:29:02.094Z,20.83
2019-02-27T00:31:30.941Z,24.57
2019-02-27T00:34:00.541Z,25.43
2019-02-27T00:36:29.842Z,24.60
2019-02-27T00:38:58.657Z,26.70
2019-02-27T00:41:28.362Z,22.90
2019-02-27T00:44:01.040Z,19.87
2019-02-27T00:46:26.016Z,25.97
2019-02-27T00:48:59.037Z,24.07
2019-02-27T00:51:23.662Z,23.17
2019-02-27T00:53:52.472Z,21.53
2019-02-27T00:56:21.272Z,20.97
2019-02-27T00:58:50.088Z,22.67
2019-02-27T01:01:19.120Z,26.30
2019-02-27T01:03:48.586Z,21.77
2019-02-27T01:06:18.247Z,25.93
2019-02-27T01:08:47.835Z,19.67
2019-02-27T01:11:18.401Z,20.90
2019-02-27T01:13:46.423Z,21.03
2019-02-27T01:16:17.334Z,25.03
2019-02-27T01:18:44.278Z,24.50
2019-02-27T01:21:13.075Z,19.87
2019-02-27T01:23:44.870Z,23.33
2019-02-27T01:26:13.690Z,24.67
2019-02-27T01:28:45.452Z,26.33
2019-02-27T01:31:11.347Z,27.13
2019-02-27T01:33:41.946Z,23.17
2019-02-27T01:36:11.348Z,20.43
2019-02-27T01:38:40.117Z,26.90
2019-02-27T01:41:09.879Z,24.53
2019-02-27T01:43:39.860Z,21.80
2019-02-27T01:46:08.171Z,22.20
2019-02-27T01:48:37.030Z,24.87
2019-02-27T01:51:06.139Z,26.93
2019-02-27T01:53:37.948Z,23.03
2019-02-27T01:56:05.859Z,24.47
2019-02-27T01:58:36.453Z,23.37
2019-02-27T02:01:06.498Z,25.67
2019-02-27T02:03:35.534Z,27.20
2019-02-27T02:06:05.270Z,23.07
2019-02-27T02:08:34.099Z,24.40
2019-02-27T02:11:02.896Z,22.37
2019-02-27T02:13:51.603Z,24.20
2019-02-27T02:18:39.037Z,24.40
2019-02-27T02:21:21.050Z,22.87
2019-02-27T02:26:10.166Z,25.33
2019-02-27T02:29:27.467Z,22.90
2019-02-27T02:32:02.157Z,23.13
2019-02-27T02:34:42.344Z,25.63
2019-02-27T02:37:30.045Z,19.30
2019-02-27T02:42:16.446Z,24.20
2019-02-27T02:44:57.479Z,23.10
2019-02-27T02:47:35.933Z,26.13
2019-02-27T02:51:18.994Z,26.73
2019-02-27T02:56:01.758Z,23.80
2019-02-27T03:00:44.187Z,22.23
2019-02-27T03:03:28.004Z,23.37
2019-02-27T03:06:34.407Z,23.73
2019-02-27T03:09:20.680Z,25.83
2019-02-27T03:12:19.774Z,21.97
2019-02-27T03:15:00.554Z,21.53
2019-02-27T03:19:12.208Z,23.53
2019-02-27T03:23:55.420Z,19.57
2019-02-27T03:26:41.378Z,21.70
2019-02-27T03:29:39.617Z,21.90
2019-02-27T03:32:15.153Z,23.00
2019-02-27T03:35:04.763Z,22.17
2019-02-27T03:37:40.551Z,25.50
2019-02-27T03:40:25.145Z,25.60
2019-02-27T03:43:02.351Z,26.00
2019-02-27T03:45:43.675Z,25.10
2019-02-27T03:48:27.531Z,25.10
2019-02-27T03:51:05.803Z,25.63
2019-02-27T03:54:50.248Z,24.57
2019-02-27T03:58:31.747Z,21.93
2019-02-27T04:01:15.493Z,23.40
2019-02-27T04:04:03.008Z,22.07
2019-02-27T04:07:19.118Z,24.13
2019-02-27T04:09:47.901Z,22.10
2019-02-27T04:12:17.426Z,20.43
2019-02-27T04:14:46.625Z,23.53
2019-02-27T04:17:15.967Z,28.37
2019-02-27T04:19:44.766Z,26.80
2019-02-27T04:22:13.734Z,23.67
2019-02-27T04:24:43.501Z,24.97
2019-02-27T04:27:12.960Z,25.10
2019-02-27T04:29:41.932Z,23.17
2019-02-27T04:32:12.395Z,23.00
2019-02-27T04:34:39.347Z,24.43
2019-02-27T04:37:08.770Z,24.73
2019-02-27T04:39:38.850Z,23.60
2019-02-27T04:42:07.725Z,23.87
2019-02-27T04:44:39.036Z,20.30
2019-02-27T04:47:05.678Z,23.97
2019-02-27T04:49:37.454Z,25.80
2019-02-27T04:52:03.369Z,24.17
2019-02-27T04:54:32.168Z,25.50
2019-02-27T04:57:01.941Z,22.53
2019-02-27T04:59:30.995Z,24.23
2019-02-27T05:01:59.743Z,25.87
2019-02-27T05:04:28.558Z,23.90
2019-02-27T05:06:57.942Z,25.53
2019-02-27T05:09:26.720Z,24.97
2019-02-27T05:11:56.261Z,27.03
2019-02-27T05:14:27.339Z,25.77
2019-02-27T05:16:55.504Z,23.83
2019-02-27T05:19:25.425Z,25.70
2019-02-27T05:21:55.679Z,24.50
2019-02-27T05:24:24.466Z,25.00
2019-02-27T05:26:53.288Z,25.97
2019-02-27T05:29:22.350Z,28.20
2019-02-27T05:31:53.315Z,25.33
2019-02-27T05:34:20.029Z,25.23
2019-02-27T05:36:49.989Z,24.00
2019-02-27T05:39:18.798Z,25.87
2019-02-27T05:41:47.618Z,24.03
2019-02-27T05:44:16.440Z,25.33
2019-02-27T05:46:45.236Z,25.27
2019-02-27T05:49:14.037Z,24.43
2019-02-27T05:51:42.826Z,24.63
2019-02-27T05:54:11.726Z,25.43
2019-02-27T05:56:40.559Z,25.57
2019-02-27T05:59:09.334Z,25.57
2019-02-27T06:01:38.732Z,26.63
2019-02-27T06:04:08.331Z,24.83
2019-02-27T06:06:37.172Z,26.20
2019-02-27T06:09:09.915Z,24.93
2019-02-27T06:11:36.738Z,25.47
2019-02-27T06:14:05.863Z,26.90
2019-02-27T06:16:37.052Z,25.03
2019-02-27T06:19:04.818Z,26.63
2019-02-27T06:21:33.867Z,28.43
2019-02-27T06:24:04.333Z,26.77
2019-02-27T06:26:33.191Z,24.57
2019-02-27T06:29:01.955Z,26.00
2019-02-27T06:31:30.722Z,25.13
2019-02-27T06:33:59.583Z,27.57
2019-02-27T06:36:28.356Z,24.93
2019-02-27T06:39:00.161Z,26.77
2019-02-27T06:41:26.031Z,26.40
2019-02-27T06:43:54.903Z,27.07
2019-02-27T06:46:25.629Z,22.87
2019-02-27T06:48:56.374Z,22.90
2019-02-27T06:51:24.431Z,28.13
2019-02-27T06:53:53.439Z,23.53
2019-02-27T06:56:22.271Z,27.20
2019-02-27T06:58:51.711Z,28.23
2019-02-27T07:01:20.514Z,52.00
2019-02-27T07:03:50.227Z,30.03
2019-02-27T07:06:21.372Z,30.27
2019-02-27T07:08:47.841Z,38.80
2019-02-27T07:11:20.340Z,29.90
2019-02-27T07:13:49.211Z,32.33
2019-02-27T07:16:20.448Z,33.57
2019-02-27T07:18:47.394Z,27.17
2019-02-27T07:21:16.202Z,24.67
2019-02-27T07:23:44.981Z,24.27
2019-02-27T07:26:15.918Z,24.47
2019-02-27T07:28:44.113Z,27.33
2019-02-27T07:31:15.282Z,22.10
2019-02-27T07:33:41.412Z,25.60
2019-02-27T07:36:10.880Z,25.77
2019-02-27T07:38:39.730Z,27.30
2019-02-27T07:41:08.621Z,27.90
2019-02-27T07:43:38.036Z,27.47
2019-02-27T07:46:09.231Z,25.83
2019-02-27T07:48:38.276Z,25.53
2019-02-27T07:51:07.053Z,24.83
2019-02-27T07:53:35.895Z,25.77
2019-02-27T07:56:04.711Z,24.33
2019-02-27T07:58:34.552Z,25.63
2019-02-27T08:01:04.463Z,25.63
2019-02-27T08:03:31.528Z,24.97
2019-02-27T08:06:04.056Z,23.17
2019-02-27T08:08:33.592Z,23.77
2019-02-27T08:11:03.012Z,22.87
2019-02-27T08:13:32.642Z,21.43
2019-02-27T08:16:01.453Z,21.83
2019-02-27T08:18:33.620Z,20.20
2019-02-27T08:20:59.531Z,21.40
2019-02-27T08:23:28.895Z,23.03
2019-02-27T08:25:57.688Z,20.47
2019-02-27T08:28:26.497Z,21.83
2019-02-27T08:30:55.336Z,21.43
2019-02-27T08:33:24.204Z,19.87
2019-02-27T08:35:52.987Z,20.27
2019-02-27T08:38:23.497Z,20.93
2019-02-27T08:40:55.016Z,19.37
2019-02-27T08:43:22.312Z,21.53
2019-02-27T08:45:51.114Z,20.37
2019-02-27T08:48:20.787Z,20.40
2019-02-27T08:50:49.602Z,20.97
2019-02-27T08:53:18.415Z,21.60
2019-02-27T08:55:47.873Z,21.10
2019-02-27T08:58:17.771Z,21.27
2019-02-27T09:00:47.438Z,23.03
2019-02-27T09:03:20.351Z,21.43
2019-02-27T09:05:44.193Z,22.20
2019-02-27T09:08:13.022Z,20.50
2019-02-27T09:10:42.200Z,20.37
2019-02-27T09:13:12.005Z,21.87
2019-02-27T09:15:41.707Z,21.13
2019-02-27T09:18:11.279Z,21.77
2019-02-27T09:20:40.131Z,20.87
2019-02-27T09:23:08.932Z,21.23
2019-02-27T09:25:37.735Z,20.60
2019-02-27T09:28:09.267Z,20.37
2019-02-27T09:30:35.494Z,21.40
2019-02-27T09:33:05.013Z,21.33
2019-02-27T09:35:38.471Z,20.13
2019-02-27T09:38:04.395Z,19.67
2019-02-27T09:40:33.207Z,20.53
2019-02-27T09:43:02.019Z,20.40
2019-02-27T09:45:31.647Z,18.77
2019-02-27T09:48:00.799Z,20.73
2019-02-27T09:50:33.210Z,19.40
2019-02-27T09:53:03.628Z,18.47
2019-02-27T09:55:32.130Z,19.33
2019-02-27T09:58:00.929Z,20.03
2019-02-27T10:00:33.269Z,19.43
2019-02-27T10:03:01.641Z,19.13
2019-02-27T10:05:30.475Z,18.60
2019-02-27T10:07:59.259Z,17.80
2019-02-27T10:10:28.054Z,17.87
2019-02-27T10:12:57.083Z,16.73
2019-02-27T10:15:26.005Z,16.80
2019-02-27T10:17:54.696Z,14.80
2019-02-27T10:20:23.519Z,15.60
2019-02-27T10:22:54.057Z,16.80
2019-02-27T10:25:22.066Z,17.50
2019-02-27T10:27:50.915Z,14.60
2019-02-27T10:30:19.731Z,12.67
2019-02-27T10:32:49.051Z,14.13
2019-02-27T10:35:17.859Z,14.53
2019-02-27T10:37:50.324Z,14.47
2019-02-27T10:40:18.267Z,15.47
2019-02-27T10:42:47.100Z,14.63
2019-02-27T10:45:15.944Z,15.60
2019-02-27T10:47:44.747Z,15.33
2019-02-27T10:50:14.232Z,13.43
2019-02-27T10:52:43.026Z,14.47
2019-02-27T10:55:14.245Z,13.50
2019-02-27T10:57:41.920Z,12.37
2019-02-27T11:00:19.240Z,11.37
2019-02-27T11:02:48.605Z,12.77
2019-02-27T11:05:17.779Z,12.17
2019-02-27T11:07:46.604Z,12.03
2019-02-27T11:10:15.137Z,10.83
2019-02-27T11:12:43.943Z,11.50
2019-02-27T11:15:14.829Z,10.63
2019-02-27T11:17:44.749Z,9.60
2019-02-27T11:20:13.706Z,10.53
2019-02-27T11:22:42.523Z,11.20
2019-02-27T11:25:13.696Z,10.30
2019-02-27T11:27:42.499Z,10.37
2019-02-27T11:30:14.161Z,10.93
2019-02-27T11:32:43.071Z,10.63
2019-02-27T11:35:11.886Z,11.40
2019-02-27T11:37:40.730Z,10.53
2019-02-27T11:40:13.479Z,11.03
2019-02-27T11:42:43.215Z,10.60
2019-02-27T11:45:12.691Z,11.40
2019-02-27T11:47:44.715Z,10.13
2019-02-27T11:50:17.803Z,11.50
2019-02-27T11:52:48.857Z,11.90
2019-02-27T11:55:14.943Z,12.07
2019-02-27T11:57:43.591Z,12.63
2019-02-27T12:00:17.916Z,12.43
2019-02-27T12:02:44.567Z,13.17
2019-02-27T12:05:14.199Z,13.57
2019-02-27T12:07:43.916Z,12.57
2019-02-27T12:10:16.330Z,13.00
2019-02-27T12:12:45.158Z,14.97
2019-02-27T12:15:15.856Z,12.33
2019-02-27T12:17:46.988Z,12.47
2019-02-27T12:20:18.075Z,12.93
2019-02-27T12:22:43.394Z,11.90
2019-02-27T12:25:13.381Z,12.50
2019-02-27T12:27:49.027Z,12.13
2019-02-27T12:30:13.488Z,11.77
2019-02-27T12:32:42.343Z,12.70
2019-02-27T12:35:13.655Z,12.37
2019-02-27T12:37:42.523Z,12.20
2019-02-27T12:40:13.285Z,13.67
2019-02-27T12:42:42.733Z,13.00
2019-02-27T12:45:13.602Z,12.73
2019-02-27T12:47:42.380Z,11.33
2019-02-27T12:50:12.667Z,12.10
2019-02-27T12:52:44.371Z,11.53
2019-02-27T12:55:11.349Z,11.73
2019-02-27T12:57:40.184Z,11.17
2019-02-27T13:00:11.088Z,12.03
2019-02-27T13:02:39.897Z,12.27
2019-02-27T13:05:09.945Z,12.20
2019-02-27T13:07:38.741Z,11.57
2019-02-27T13:10:10.015Z,12.40
2019-02-27T13:12:38.822Z,12.17
2019-02-27T13:15:08.177Z,11.83
2019-02-27T13:17:37.056Z,12.63
2019-02-27T13:20:09.036Z,14.50
2019-02-27T13:22:37.723Z,13.97
2019-02-27T13:25:08.262Z,12.23
2019-02-27T13:27:37.048Z,12.10
2019-02-27T13:30:09.234Z,12.80
2019-02-27T13:32:35.491Z,11.90
2019-02-27T13:35:04.569Z,12.23
2019-02-27T13:37:33.383Z,11.83
2019-02-27T13:40:02.802Z,13.13
2019-02-27T13:42:31.640Z,12.77
2019-02-27T13:45:00.453Z,11.87
2019-02-27T13:47:31.069Z,12.93
2019-02-27T13:49:58.335Z,11.30
2019-02-27T13:52:28.128Z,15.37
2019-02-27T13:54:56.939Z,12.40
2019-02-27T13:57:25.908Z,11.47
2019-02-27T13:59:54.574Z,12.07
2019-02-27T14:02:24.236Z,13.33
2019-02-27T14:05:00.430Z,13.37
2019-02-27T14:07:27.540Z,12.33
2019-02-27T14:09:56.334Z,15.30
2019-02-27T14:12:25.219Z,14.17
2019-02-27T14:14:55.928Z,13.70
2019-02-27T14:17:24.051Z,15.10
2019-02-27T14:19:55.281Z,12.07
2019-02-27T14:22:21.675Z,12.00
2019-02-27T14:24:51.877Z,12.70
2019-02-27T14:27:20.203Z,13.17
2019-02-27T14:29:50.533Z,13.10
2019-02-27T14:32:20.620Z,12.70
2019-02-27T14:34:49.399Z,13.80
2019-02-27T14:37:18.174Z,13.73
2019-02-27T14:39:48.050Z,13.33
2019-02-27T14:42:16.847Z,12.87
2019-02-27T14:44:45.642Z,12.50
2019-02-27T14:47:16.402Z,13.13
2019-02-27T14:49:44.031Z,13.33
2019-02-27T14:52:14.316Z,17.27
2019-02-27T14:54:41.946Z,14.90
2019-02-27T14:57:12.909Z,13.37
2019-02-27T14:59:39.555Z,13.33
2019-02-27T15:02:08.387Z,14.60
2019-02-27T15:04:37.192Z,14.53
2019-02-27T15:07:06.027Z,14.47
2019-02-27T15:09:47.417Z,14.37
2019-02-27T15:12:06.688Z,14.13
2019-02-27T15:14:35.738Z,12.77
2019-02-27T15:17:04.519Z,14.73
2019-02-27T15:19:35.379Z,14.43
2019-02-27T15:22:02.146Z,13.37
2019-02-27T15:24:31.921Z,14.17
2019-02-27T15:27:00.343Z,14.93
2019-02-27T15:29:29.253Z,15.10
2019-02-27T15:31:58.083Z,15.57
2019-02-27T15:34:26.952Z,18.03
2019-02-27T15:36:55.811Z,15.70
2019-02-27T15:39:24.579Z,17.20
2019-02-27T15:41:54.337Z,15.10
2019-02-27T15:44:23.806Z,16.73
2019-02-27T15:46:53.507Z,16.17
2019-02-27T15:49:22.066Z,16.17
2019-02-27T15:51:50.914Z,16.73
2019-02-27T15:54:23.831Z,15.50
2019-02-27T15:56:51.678Z,16.03
2019-02-27T15:59:20.461Z,16.63
2019-02-27T16:01:49.249Z,15.80
2019-02-27T16:04:21.232Z,16.07
2019-02-27T16:06:46.927Z,17.13
2019-02-27T16:09:15.750Z,16.90
2019-02-27T16:11:48.153Z,16.90
2019-02-27T16:14:15.989Z,15.57
2019-02-27T16:16:47.536Z,16.27
2019-02-27T16:19:15.007Z,17.03
2019-02-27T16:21:44.328Z,16.63
2019-02-27T16:24:13.842Z,16.57
2019-02-27T16:26:43.447Z,16.90
2019-02-27T16:29:13.134Z,18.43
2019-02-27T16:31:42.640Z,19.33
2019-02-27T16:34:11.506Z,19.00
2019-02-27T16:36:40.279Z,17.77
2019-02-27T16:39:09.750Z,19.03
2019-02-27T16:41:46.105Z,17.80
2019-02-27T16:44:15.228Z,16.37
2019-02-27T16:46:44.931Z,17.10
2019-02-27T16:49:13.565Z,17.27
2019-02-27T16:51:42.472Z,15.83
2019-02-27T16:54:11.647Z,16.27
2019-02-27T16:56:46.575Z,16.93
2019-02-27T16:59:11.946Z,15.80
2019-02-27T17:01:39.212Z,17.27
2019-02-27T17:04:08.170Z,17.83
2019-02-27T17:06:37.043Z,18.03
2019-02-27T17:09:10.070Z,18.60
2019-02-27T17:11:38.093Z,16.13
2019-02-27T17:14:06.995Z,13.30
2019-02-27T17:16:35.836Z,13.67
2019-02-27T17:19:04.642Z,14.13
2019-02-27T17:21:34.210Z,15.03
2019-02-27T17:24:04.337Z,15.90
2019-02-27T17:26:35.305Z,15.93
2019-02-27T17:29:02.962Z,12.90
2019-02-27T17:31:32.274Z,13.93
2019-02-27T17:34:01.162Z,16.30
2019-02-27T17:36:32.087Z,16.43
2019-02-27T17:38:59.540Z,15.93
2019-02-27T17:41:28.917Z,17.90
2019-02-27T17:44:03.887Z,15.93
2019-02-27T17:46:26.900Z,15.93
2019-02-27T17:48:55.846Z,16.20
2019-02-27T17:51:25.132Z,16.07
2019-02-27T17:53:55.133Z,14.17
2019-02-27T17:56:23.441Z,15.40
2019-02-27T17:58:52.266Z,16.17
2019-02-27T18:01:24.936Z,17.07
2019-02-27T18:03:50.870Z,16.83
2019-02-27T18:06:19.721Z,16.23
2019-02-27T18:08:51.705Z,16.83
2019-02-27T18:11:18.934Z,20.57
2019-02-27T18:13:47.830Z,16.80
2019-02-27T18:16:16.563Z,18.43
2019-02-27T18:18:45.899Z,21.00
2019-02-27T18:21:14.739Z,20.67
2019-02-27T18:23:44.310Z,17.57
2019-02-27T18:26:15.656Z,14.90
2019-02-27T18:28:44.093Z,18.73
2019-02-27T18:31:13.525Z,15.27
2019-02-27T18:33:42.326Z,17.33
2019-02-27T18:36:11.220Z,22.87
2019-02-27T18:38:40.061Z,27.27
2019-02-27T18:41:08.871Z,37.23
2019-02-27T18:43:37.715Z,24.30
2019-02-27T18:46:07.241Z,22.63
2019-02-27T18:48:36.864Z,22.53
2019-02-27T18:51:06.514Z,22.77
2019-02-27T18:53:36.593Z,18.57
2019-02-27T18:56:06.653Z,20.13
2019-02-27T18:58:35.438Z,20.40
2019-02-27T19:01:09.499Z,22.00
2019-02-27T19:03:34.824Z,21.40
2019-02-27T19:06:03.653Z,21.20
2019-02-27T19:08:32.784Z,21.50
2019-02-27T19:11:01.617Z,21.33
2019-02-27T19:13:31.714Z,21.33
2019-02-27T19:15:59.384Z,23.37
2019-02-27T19:18:28.199Z,24.87
2019-02-27T19:20:59.230Z,21.93
2019-02-27T19:23:26.951Z,23.90
2019-02-27T19:25:56.627Z,24.23
2019-02-27T19:28:25.701Z,25.97
2019-02-27T19:30:55.009Z,26.87
2019-02-27T19:33:23.826Z,26.60
2019-02-27T19:35:55.845Z,29.83
2019-02-27T19:38:22.035Z,30.00
2019-02-27T19:40:50.815Z,29.43
2019-02-27T19:43:21.096Z,31.97
2019-02-27T19:45:49.061Z,32.63
2019-02-27T19:48:18.403Z,32.50
2019-02-27T19:50:47.723Z,34.37
2019-02-27T19:53:16.555Z,34.43
2019-02-27T19:55:45.376Z,35.37
2019-02-27T19:58:17.470Z,38.63
2019-02-27T20:00:48.468Z,34.63
2019-02-27T20:03:12.111Z,32.37
2019-02-27T20:05:40.910Z,33.60
2019-02-27T20:08:11.350Z,34.23
2019-02-27T20:10:40.758Z,33.40
2019-02-27T20:13:12.715Z,31.03
2019-02-27T20:15:42.806Z,35.87
2019-02-27T20:18:10.356Z,34.20
2019-02-27T20:20:41.484Z,35.23
2019-02-27T20:23:11.101Z,35.43
2019-02-27T20:25:44.194Z,32.53
2019-02-27T20:28:09.700Z,34.20
2019-02-27T20:30:39.541Z,34.23
2019-02-27T20:33:08.349Z,34.30
2019-02-27T20:35:37.133Z,46.67
2019-02-27T20:38:05.964Z,37.93
2019-02-27T20:40:35.238Z,37.60
2019-02-27T20:43:03.764Z,37.07
2019-02-27T20:45:33.505Z,35.60
2019-02-27T20:48:02.389Z,36.43
2019-02-27T20:50:36.363Z,34.77
2019-02-27T20:53:05.427Z,37.13
2019-02-27T20:55:34.801Z,35.37
2019-02-27T20:58:03.967Z,35.50
2019-02-27T21:00:35.937Z,36.90
2019-02-27T21:03:02.580Z,40.83
2019-02-27T21:05:30.554Z,38.63
2019-02-27T21:08:02.036Z,36.20
2019-02-27T21:10:28.858Z,33.67
2019-02-27T21:12:58.180Z,34.77
2019-02-27T21:15:29.302Z,34.50
2019-02-27T21:17:58.468Z,33.17
2019-02-27T21:20:25.235Z,37.23
2019-02-27T21:22:55.023Z,37.17
2019-02-27T21:25:24.431Z,38.20
2019-02-27T21:27:53.257Z,36.07
2019-02-27T21:30:22.124Z,35.63
2019-02-27T21:32:51.895Z,35.33
2019-02-27T21:35:21.383Z,35.83
2019-02-27T21:37:51.181Z,35.87
2019-02-27T21:40:20.595Z,36.13
2019-02-27T21:42:51.830Z,37.77
2019-02-27T21:45:20.236Z,35.00
2019-02-27T21:47:52.947Z,34.87
2019-02-27T21:50:21.228Z,38.37
2019-02-27T21:52:50.018Z,35.63
2019-02-27T21:55:18.827Z,39.97
2019-02-27T21:57:47.623Z,31.17
2019-02-27T22:00:20.385Z,37.10
2019-02-27T22:02:50.297Z,42.70
2019-02-27T22:05:20.120Z,40.90
2019-02-27T22:07:49.912Z,42.33
2019-02-27T22:10:20.543Z,38.37
2019-02-27T22:12:48.948Z,35.03
2019-02-27T22:15:22.923Z,43.97
2019-02-27T22:17:51.757Z,36.60
2019-02-27T22:20:22.191Z,43.07
2019-02-27T22:22:53.285Z,42.27
2019-02-27T22:25:23.103Z,35.27
2019-02-27T22:27:52.474Z,39.43
2019-02-27T22:30:21.774Z,38.90
2019-02-27T22:32:51.531Z,38.63
2019-02-27T22:35:20.306Z,35.87
2019-02-27T22:37:52.491Z,37.97
2019-02-27T22:40:19.227Z,36.83
2019-02-27T22:42:50.552Z,40.40
2019-02-27T22:45:20.620Z,38.13
2019-02-27T22:47:49.914Z,45.53
2019-02-27T22:50:19.377Z,37.60
2019-02-27T22:52:54.162Z,36.60
2019-02-27T22:55:18.139Z,36.30
2019-02-27T22:57:47.682Z,35.37
2019-02-27T23:00:37.890Z,46.50
2019-02-27T23:03:06.700Z,32.10
2019-02-27T23:05:38.182Z,45.43
2019-02-27T23:08:04.277Z,34.37
2019-02-27T23:10:35.174Z,38.17
2019-02-27T23:13:04.018Z,40.47
2019-02-27T23:15:33.354Z,36.03
2019-02-27T23:18:02.582Z,41.83
2019-02-27T23:20:32.627Z,37.90
2019-02-27T23:23:03.791Z,35.07
2019-02-27T23:25:33.906Z,43.20
2019-02-27T23:28:03.885Z,42.73
2019-02-27T23:30:32.670Z,46.10
2019-02-27T23:33:02.938Z,42.63
2019-02-27T23:35:32.524Z,36.50
2019-02-27T23:38:03.312Z,37.73
2019-02-27T23:40:33.177Z,30.73
2019-02-27T23:43:03.489Z,31.37
2019-02-27T23:45:31.628Z,34.27
2019-02-27T23:48:02.222Z,36.57
2019-02-27T23:50:29.891Z,37.70
2019-02-27T23:52:58.690Z,33.30
2019-02-27T23:55:27.464Z,43.03
2019-02-27T23:57:57.922Z,37.27
